Terminal Aerodrome Forecast
Issued by NWS

Home | Current Version | Previous Version | Text Only | Print | Product List | Glossary On
Versions: 1 2 3 4 5 6 7 8 9 10 11 12 13 14 15 16 17 18 19 20 21 22 23
000
FTUS43 KICT 222330
TAFSLN
TAF
KSLN 222330Z 2300/2324 31007KT P6SM SCT070
     FM231000 29012KT P6SM SCT025 OVC050
     FM231600 34020G30KT P6SM VCSH OVC030
     FM232000 34020G30KT 5SM -RASN OVC025=

USA.gov is the U.S. government's official web portal to all federal, state and local government web resources and services.